sensor_id;sensor_type;location;lat;lon;timestamp;pressure;altitude;pressure_sealevel;temperature;humidity
12624;BME280;6377;42.836;23.998;2024-03-25T00:01:59;94294.50;;;9.06;100.00
12624;BME280;6377;42.836;23.998;2024-03-25T00:04:27;94292.66;;;8.99;100.00
12624;BME280;6377;42.836;23.998;2024-03-25T00:06:54;94297.53;;;8.96;100.00
12624;BME280;6377;42.836;23.998;2024-03-25T00:09:21;94293.88;;;8.90;100.00
12624;BME280;6377;42.836;23.998;2024-03-25T00:11:48;94280.47;;;8.72;100.00
12624;BME280;6377;42.836;23.998;2024-03-25T00:14:13;94308.28;;;8.88;100.00
12624;BME280;6377;42.836;23.998;2024-03-25T00:16:40;94313.91;;;8.59;100.00
12624;BME280;6377;42.836;23.998;2024-03-25T00:19:06;94287.44;;;8.26;100.00
12624;BME280;6377;42.836;23.998;2024-03-25T00:21:33;94315.56;;;8.25;100.00
12624;BME280;6377;42.836;23.998;2024-03-25T00:23:58;94327.94;;;7.84;100.00
12624;BME280;6377;42.836;23.998;2024-03-25T00:26:27;94320.50;;;7.94;100.00
12624;BME280;6377;42.836;23.998;2024-03-25T00:28:53;94316.09;;;7.67;100.00
12624;BME280;6377;42.836;23.998;2024-03-25T00:31:19;94345.25;;;7.65;100.00
12624;BME280;6377;42.836;23.998;2024-03-25T00:33:45;94335.22;;;7.82;100.00
12624;BME280;6377;42.836;23.998;2024-03-25T00:36:12;94332.81;;;7.87;100.00
12624;BME280;6377;42.836;23.998;2024-03-25T00:38:38;94345.19;;;7.86;100.00
12624;BME280;6377;42.836;23.998;2024-03-25T00:41:04;94368.13;;;7.65;100.00
12624;BME280;6377;42.836;23.998;2024-03-25T00:43:32;94372.94;;;7.61;100.00
12624;BME280;6377;42.836;23.998;2024-03-25T00:45:58;94360.84;;;7.67;100.00
12624;BME280;6377;42.836;23.998;2024-03-25T00:48:24;94364.31;;;7.46;100.00
12624;BME280;6377;42.836;23.998;2024-03-25T00:50:51;94369.47;;;7.54;100.00
12624;BME280;6377;42.836;23.998;2024-03-25T00:53:16;94359.50;;;7.22;100.00
12624;BME280;6377;42.836;23.998;2024-03-25T00:55:43;94357.72;;;7.29;100.00
12624;BME280;6377;42.836;23.998;2024-03-25T00:58:09;94350.72;;;7.36;100.00
12624;BME280;6377;42.836;23.998;2024-03-25T01:00:37;94346.44;;;7.35;100.00
12624;BME280;6377;42.836;23.998;2024-03-25T01:03:03;94344.94;;;7.26;100.00
12624;BME280;6377;42.836;23.998;2024-03-25T01:05:30;94335.47;;;7.31;100.00
12624;BME280;6377;42.836;23.998;2024-03-25T01:07:56;94335.03;;;7.28;100.00
12624;BME280;6377;42.836;23.998;2024-03-25T01:10:23;94336.00;;;7.20;100.00
12624;BME280;6377;42.836;23.998;2024-03-25T01:12:53;94327.66;;;7.10;100.00
12624;BME280;6377;42.836;23.998;2024-03-25T01:15:20;94304.03;;;6.96;100.00
12624;BME280;6377;42.836;23.998;2024-03-25T01:17:47;94322.94;;;7.06;100.00
12624;BME280;6377;42.836;23.998;2024-03-25T01:20:14;94323.16;;;7.04;100.00
12624;BME280;6377;42.836;23.998;2024-03-25T01:22:40;94330.91;;;7.12;100.00
12624;BME280;6377;42.836;23.998;2024-03-25T01:25:07;94285.09;;;7.00;100.00
12624;BME280;6377;42.836;23.998;2024-03-25T01:27:33;94315.75;;;7.14;100.00
12624;BME280;6377;42.836;23.998;2024-03-25T01:30:00;94317.16;;;7.17;100.00
12624;BME280;6377;42.836;23.998;2024-03-25T01:32:26;94302.91;;;7.05;100.00
12624;BME280;6377;42.836;23.998;2024-03-25T01:34:55;94291.50;;;6.91;100.00
12624;BME280;6377;42.836;23.998;2024-03-25T01:37:21;94303.44;;;6.94;100.00
12624;BME280;6377;42.836;23.998;2024-03-25T01:39:48;94312.94;;;6.95;100.00
12624;BME280;6377;42.836;23.998;2024-03-25T01:42:14;94322.03;;;6.92;100.00
12624;BME280;6377;42.836;23.998;2024-03-25T01:44:40;94319.34;;;6.86;100.00
12624;BME280;6377;42.836;23.998;2024-03-25T01:47:06;94305.22;;;6.87;100.00
12624;BME280;6377;42.836;23.998;2024-03-25T01:49:33;94298.63;;;6.97;100.00
12624;BME280;6377;42.836;23.998;2024-03-25T01:52:00;94291.41;;;6.85;100.00
12624;BME280;6377;42.836;23.998;2024-03-25T01:54:27;94289.06;;;6.68;100.00
12624;BME280;6377;42.836;23.998;2024-03-25T01:56:53;94294.94;;;6.70;100.00
12624;BME280;6377;42.836;23.998;2024-03-25T01:59:21;94291.19;;;6.80;100.00
12624;BME280;6377;42.836;23.998;2024-03-25T02:01:47;94289.44;;;6.87;100.00
12624;BME280;6377;42.836;23.998;2024-03-25T02:04:15;94290.50;;;6.92;100.00
12624;BME280;6377;42.836;23.998;2024-03-25T02:06:42;94291.88;;;6.88;100.00
12624;BME280;6377;42.836;23.998;2024-03-25T02:09:12;94198.66;;;6.35;100.00
12624;BME280;6377;42.836;23.998;2024-03-25T02:11:38;94290.59;;;7.05;100.00
12624;BME280;6377;42.836;23.998;2024-03-25T02:14:06;94191.69;;;6.49;100.00
12624;BME280;6377;42.836;23.998;2024-03-25T02:16:32;94289.38;;;7.08;100.00
12624;BME280;6377;42.836;23.998;2024-03-25T02:18:59;94158.81;;;6.32;100.00
12624;BME280;6377;42.836;23.998;2024-03-25T02:21:25;94320.28;;;7.27;100.00
12624;BME280;6377;42.836;23.998;2024-03-25T02:23:53;94283.44;;;6.93;100.00
12624;BME280;6377;42.836;23.998;2024-03-25T02:26:23;94256.59;;;6.76;100.00
12624;BME280;6377;42.836;23.998;2024-03-25T02:28:50;94305.22;;;7.14;100.00
12624;BME280;6377;42.836;23.998;2024-03-25T02:31:16;94319.69;;;7.25;100.00
12624;BME280;6377;42.836;23.998;2024-03-25T02:33:43;94308.16;;;7.05;100.00
12624;BME280;6377;42.836;23.998;2024-03-25T02:36:08;94302.81;;;6.92;100.00
12624;BME280;6377;42.836;23.998;2024-03-25T02:38:35;94304.09;;;6.74;100.00
12624;BME280;6377;42.836;23.998;2024-03-25T02:41:02;94309.28;;;6.68;100.00
12624;BME280;6377;42.836;23.998;2024-03-25T02:43:30;94316.75;;;6.50;100.00
12624;BME280;6377;42.836;23.998;2024-03-25T02:45:56;94309.19;;;6.40;100.00
12624;BME280;6377;42.836;23.998;2024-03-25T02:48:23;94336.56;;;6.52;100.00
12624;BME280;6377;42.836;23.998;2024-03-25T02:50:49;94338.59;;;6.50;100.00
12624;BME280;6377;42.836;23.998;2024-03-25T02:53:16;94336.13;;;6.49;100.00
12624;BME280;6377;42.836;23.998;2024-03-25T02:55:41;94343.41;;;6.68;100.00
12624;BME280;6377;42.836;23.998;2024-03-25T02:58:08;94339.81;;;6.69;100.00
12624;BME280;6377;42.836;23.998;2024-03-25T03:00:36;94315.63;;;6.59;100.00
12624;BME280;6377;42.836;23.998;2024-03-25T03:03:03;94336.66;;;6.59;100.00
12624;BME280;6377;42.836;23.998;2024-03-25T03:05:29;94326.94;;;6.38;100.00
12624;BME280;6377;42.836;23.998;2024-03-25T03:07:56;94329.88;;;6.50;100.00
12624;BME280;6377;42.836;23.998;2024-03-25T03:10:21;94326.81;;;6.46;100.00
12624;BME280;6377;42.836;23.998;2024-03-25T03:12:48;94330.72;;;6.50;100.00
12624;BME280;6377;42.836;23.998;2024-03-25T03:15:14;94328.09;;;6.50;100.00
12624;BME280;6377;42.836;23.998;2024-03-25T03:17:42;94325.16;;;6.60;100.00
12624;BME280;6377;42.836;23.998;2024-03-25T03:20:09;94343.66;;;6.73;100.00
12624;BME280;6377;42.836;23.998;2024-03-25T03:22:36;94342.75;;;6.81;100.00
12624;BME280;6377;42.836;23.998;2024-03-25T03:25:02;94350.28;;;6.90;100.00
12624;BME280;6377;42.836;23.998;2024-03-25T03:27:30;94343.06;;;6.92;100.00
12624;BME280;6377;42.836;23.998;2024-03-25T03:29:56;94322.72;;;6.58;100.00
12624;BME280;6377;42.836;23.998;2024-03-25T03:32:22;94349.19;;;6.78;100.00
12624;BME280;6377;42.836;23.998;2024-03-25T03:34:49;94350.50;;;6.89;100.00
12624;BME280;6377;42.836;23.998;2024-03-25T03:37:16;94359.44;;;6.94;100.00
12624;BME280;6377;42.836;23.998;2024-03-25T03:39:42;94359.44;;;6.73;100.00
12624;BME280;6377;42.836;23.998;2024-03-25T03:42:08;94377.66;;;6.74;100.00
12624;BME280;6377;42.836;23.998;2024-03-25T03:44:34;94374.75;;;6.69;100.00
12624;BME280;6377;42.836;23.998;2024-03-25T03:47:01;94357.63;;;6.38;100.00
12624;BME280;6377;42.836;23.998;2024-03-25T03:49:27;94376.19;;;6.51;100.00
12624;BME280;6377;42.836;23.998;2024-03-25T03:51:55;94377.41;;;6.55;100.00
12624;BME280;6377;42.836;23.998;2024-03-25T03:54:20;94377.03;;;6.58;100.00
12624;BME280;6377;42.836;23.998;2024-03-25T03:56:47;94379.94;;;6.63;100.00
12624;BME280;6377;42.836;23.998;2024-03-25T03:59:13;94389.28;;;6.65;100.00
12624;BME280;6377;42.836;23.998;2024-03-25T04:01:40;94385.22;;;6.63;100.00
12624;BME280;6377;42.836;23.998;2024-03-25T04:04:05;94397.66;;;6.75;100.00
12624;BME280;6377;42.836;23.998;2024-03-25T04:06:32;94399.22;;;6.70;100.00
12624;BME280;6377;42.836;23.998;2024-03-25T04:08:59;94401.47;;;6.73;100.00
12624;BME280;6377;42.836;23.998;2024-03-25T04:11:26;94325.78;;;6.26;100.00
12624;BME280;6377;42.836;23.998;2024-03-25T04:13:51;94230.97;;;5.64;100.00
12624;BME280;6377;42.836;23.998;2024-03-25T04:16:18;94382.56;;;6.63;100.00
12624;BME280;6377;42.836;23.998;2024-03-25T04:18:44;94410.63;;;6.77;100.00
12624;BME280;6377;42.836;23.998;2024-03-25T04:21:12;94388.66;;;6.49;100.00
12624;BME280;6377;42.836;23.998;2024-03-25T04:23:39;94414.59;;;6.73;100.00
12624;BME280;6377;42.836;23.998;2024-03-25T04:26:07;94371.78;;;6.37;100.00
12624;BME280;6377;42.836;23.998;2024-03-25T04:28:34;94427.00;;;6.79;100.00
12624;BME280;6377;42.836;23.998;2024-03-25T04:31:00;94419.56;;;6.83;100.00
12624;BME280;6377;42.836;23.998;2024-03-25T04:33:26;94425.84;;;6.67;100.00
12624;BME280;6377;42.836;23.998;2024-03-25T04:35:53;94420.09;;;6.57;100.00
12624;BME280;6377;42.836;23.998;2024-03-25T04:38:19;94439.34;;;6.64;100.00
12624;BME280;6377;42.836;23.998;2024-03-25T04:40:44;94433.97;;;6.51;100.00
12624;BME280;6377;42.836;23.998;2024-03-25T04:43:11;94448.97;;;6.57;100.00
12624;BME280;6377;42.836;23.998;2024-03-25T04:45:37;94454.41;;;6.41;100.00
12624;BME280;6377;42.836;23.998;2024-03-25T04:48:03;94448.81;;;6.44;100.00
12624;BME280;6377;42.836;23.998;2024-03-25T04:50:30;94418.13;;;6.30;100.00
12624;BME280;6377;42.836;23.998;2024-03-25T04:52:56;94425.16;;;6.44;100.00
12624;BME280;6377;42.836;23.998;2024-03-25T04:55:22;94439.47;;;6.56;100.00
12624;BME280;6377;42.836;23.998;2024-03-25T04:57:47;94447.44;;;6.62;100.00
12624;BME280;6377;42.836;23.998;2024-03-25T05:00:15;94394.03;;;6.26;100.00
12624;BME280;6377;42.836;23.998;2024-03-25T05:02:41;94454.09;;;6.80;100.00
12624;BME280;6377;42.836;23.998;2024-03-25T05:05:07;94442.41;;;6.82;100.00
12624;BME280;6377;42.836;23.998;2024-03-25T05:07:33;94460.06;;;6.88;100.00
12624;BME280;6377;42.836;23.998;2024-03-25T05:09:59;94479.84;;;7.05;100.00
12624;BME280;6377;42.836;23.998;2024-03-25T05:12:25;94429.38;;;6.74;100.00
12624;BME280;6377;42.836;23.998;2024-03-25T05:14:51;94503.84;;;7.17;100.00
12624;BME280;6377;42.836;23.998;2024-03-25T05:17:18;94498.50;;;7.25;100.00
12624;BME280;6377;42.836;23.998;2024-03-25T05:19:44;94487.06;;;7.18;100.00
12624;BME280;6377;42.836;23.998;2024-03-25T05:22:09;94507.69;;;7.36;100.00
12624;BME280;6377;42.836;23.998;2024-03-25T05:24:35;94437.09;;;6.97;100.00
12624;BME280;6377;42.836;23.998;2024-03-25T05:27:01;94507.41;;;7.45;100.00
12624;BME280;6377;42.836;23.998;2024-03-25T05:29:27;94482.22;;;7.36;100.00
12624;BME280;6377;42.836;23.998;2024-03-25T05:31:57;94509.56;;;7.20;100.00
12624;BME280;6377;42.836;23.998;2024-03-25T05:34:26;94504.03;;;7.15;100.00
12624;BME280;6377;42.836;23.998;2024-03-25T05:36:52;94462.03;;;7.01;100.00
12624;BME280;6377;42.836;23.998;2024-03-25T05:39:18;94406.38;;;6.61;100.00
12624;BME280;6377;42.836;23.998;2024-03-25T05:41:44;94533.88;;;7.44;100.00
12624;BME280;6377;42.836;23.998;2024-03-25T05:44:10;94512.75;;;7.16;100.00
12624;BME280;6377;42.836;23.998;2024-03-25T05:46:36;94467.56;;;6.91;100.00
12624;BME280;6377;42.836;23.998;2024-03-25T05:49:02;94520.88;;;7.21;100.00
12624;BME280;6377;42.836;23.998;2024-03-25T05:51:30;94466.00;;;6.97;100.00
12624;BME280;6377;42.836;23.998;2024-03-25T05:53:56;94479.69;;;7.07;100.00
12624;BME280;6377;42.836;23.998;2024-03-25T05:56:22;94506.31;;;7.18;100.00
12624;BME280;6377;42.836;23.998;2024-03-25T05:58:47;94540.19;;;7.13;100.00
12624;BME280;6377;42.836;23.998;2024-03-25T06:01:13;94547.38;;;7.05;100.00
12624;BME280;6377;42.836;23.998;2024-03-25T06:03:39;94556.75;;;7.07;100.00
12624;BME280;6377;42.836;23.998;2024-03-25T06:06:05;94538.88;;;7.03;100.00
12624;BME280;6377;42.836;23.998;2024-03-25T06:08:32;94527.38;;;7.04;100.00
12624;BME280;6377;42.836;23.998;2024-03-25T06:11:00;94439.50;;;6.41;100.00
12624;BME280;6377;42.836;23.998;2024-03-25T06:13:26;94559.94;;;7.39;100.00
12624;BME280;6377;42.836;23.998;2024-03-25T06:15:52;94560.25;;;7.50;100.00
12624;BME280;6377;42.836;23.998;2024-03-25T06:18:18;94563.38;;;7.60;100.00
12624;BME280;6377;42.836;23.998;2024-03-25T06:20:44;94590.91;;;7.79;100.00
12624;BME280;6377;42.836;23.998;2024-03-25T06:23:09;94573.69;;;7.76;100.00
12624;BME280;6377;42.836;23.998;2024-03-25T06:25:36;94569.16;;;7.70;100.00
12624;BME280;6377;42.836;23.998;2024-03-25T06:28:03;94585.63;;;7.79;100.00
12624;BME280;6377;42.836;23.998;2024-03-25T06:30:29;94588.25;;;7.58;100.00
12624;BME280;6377;42.836;23.998;2024-03-25T06:33:13;94542.56;;;7.08;100.00
12624;BME280;6377;42.836;23.998;2024-03-25T06:35:57;94591.53;;;7.24;100.00
12624;BME280;6377;42.836;23.998;2024-03-25T06:38:23;94589.25;;;7.21;100.00
12624;BME280;6377;42.836;23.998;2024-03-25T06:40:50;94599.88;;;7.27;100.00
12624;BME280;6377;42.836;23.998;2024-03-25T06:43:16;94609.28;;;7.37;100.00
12624;BME280;6377;42.836;23.998;2024-03-25T06:45:42;94565.72;;;7.13;100.00
12624;BME280;6377;42.836;23.998;2024-03-25T06:48:07;94610.75;;;7.24;100.00
12624;BME280;6377;42.836;23.998;2024-03-25T06:50:33;94607.75;;;7.27;100.00
12624;BME280;6377;42.836;23.998;2024-03-25T06:52:59;94607.91;;;7.41;100.00
12624;BME280;6377;42.836;23.998;2024-03-25T06:55:25;94608.97;;;7.46;100.00
12624;BME280;6377;42.836;23.998;2024-03-25T06:57:52;94612.41;;;7.47;100.00
12624;BME280;6377;42.836;23.998;2024-03-25T07:00:18;94624.75;;;7.46;100.00
12624;BME280;6377;42.836;23.998;2024-03-25T07:02:44;94594.28;;;7.01;100.00
12624;BME280;6377;42.836;23.998;2024-03-25T07:05:10;94623.34;;;7.14;100.00
12624;BME280;6377;42.836;23.998;2024-03-25T07:07:36;94625.00;;;7.15;100.00
12624;BME280;6377;42.836;23.998;2024-03-25T07:10:02;94616.38;;;7.07;100.00
12624;BME280;6377;42.836;23.998;2024-03-25T07:12:28;94635.22;;;7.40;100.00
12624;BME280;6377;42.836;23.998;2024-03-25T07:14:55;94636.72;;;7.49;100.00
12624;BME280;6377;42.836;23.998;2024-03-25T07:17:21;94612.19;;;7.27;100.00
12624;BME280;6377;42.836;23.998;2024-03-25T07:19:47;94611.59;;;7.46;100.00
12624;BME280;6377;42.836;23.998;2024-03-25T07:22:12;94648.84;;;7.64;100.00
12624;BME280;6377;42.836;23.998;2024-03-25T07:24:38;94648.47;;;7.67;100.00
12624;BME280;6377;42.836;23.998;2024-03-25T07:27:04;94513.53;;;6.95;100.00
12624;BME280;6377;42.836;23.998;2024-03-25T07:29:30;94641.66;;;7.73;100.00
12624;BME280;6377;42.836;23.998;2024-03-25T07:31:57;94648.63;;;7.80;100.00
12624;BME280;6377;42.836;23.998;2024-03-25T07:34:23;94651.03;;;7.97;100.00
12624;BME280;6377;42.836;23.998;2024-03-25T07:36:49;94638.34;;;7.85;99.34
12624;BME280;6377;42.836;23.998;2024-03-25T07:39:15;94658.16;;;7.81;96.76
12624;BME280;6377;42.836;23.998;2024-03-25T07:41:41;94628.88;;;7.70;97.27
12624;BME280;6377;42.836;23.998;2024-03-25T07:44:07;94653.19;;;7.72;96.90
12624;BME280;6377;42.836;23.998;2024-03-25T07:46:32;94635.19;;;7.75;98.23
12624;BME280;6377;42.836;23.998;2024-03-25T07:48:59;94658.00;;;8.04;99.39
12624;BME280;6377;42.836;23.998;2024-03-25T07:51:25;94635.97;;;7.90;91.65
12624;BME280;6377;42.836;23.998;2024-03-25T07:53:51;94626.47;;;7.89;91.49
12624;BME280;6377;42.836;23.998;2024-03-25T07:56:17;94561.38;;;7.41;93.25
12624;BME280;6377;42.836;23.998;2024-03-25T07:58:43;94602.09;;;7.66;92.82
12624;BME280;6377;42.836;23.998;2024-03-25T08:01:08;94659.19;;;8.23;87.72
12624;BME280;6377;42.836;23.998;2024-03-25T08:03:34;94553.94;;;7.66;91.90
12624;BME280;6377;42.836;23.998;2024-03-25T08:06:02;94622.94;;;8.04;87.12
12624;BME280;6377;42.836;23.998;2024-03-25T08:08:28;94604.06;;;7.79;92.39
12624;BME280;6377;42.836;23.998;2024-03-25T08:10:54;94644.47;;;8.07;92.75
12624;BME280;6377;42.836;23.998;2024-03-25T08:13:19;94628.28;;;7.89;90.39
12624;BME280;6377;42.836;23.998;2024-03-25T08:15:45;94658.25;;;8.09;85.60
12624;BME280;6377;42.836;23.998;2024-03-25T08:18:11;94649.09;;;8.05;91.08
12624;BME280;6377;42.836;23.998;2024-03-25T08:20:37;94657.97;;;8.25;95.41
12624;BME280;6377;42.836;23.998;2024-03-25T08:23:04;94642.63;;;8.08;87.56
12624;BME280;6377;42.836;23.998;2024-03-25T08:25:30;94676.34;;;8.33;78.47
12624;BME280;6377;42.836;23.998;2024-03-25T08:27:57;94669.22;;;8.34;81.33
12624;BME280;6377;42.836;23.998;2024-03-25T08:30:23;94638.53;;;7.84;68.86
12624;BME280;6377;42.836;23.998;2024-03-25T08:32:48;94682.13;;;8.08;68.17
12624;BME280;6377;42.836;23.998;2024-03-25T08:35:14;94691.50;;;8.31;75.34
12624;BME280;6377;42.836;23.998;2024-03-25T08:37:40;94693.97;;;8.54;69.62
12624;BME280;6377;42.836;23.998;2024-03-25T08:40:08;94675.94;;;8.58;61.05
12624;BME280;6377;42.836;23.998;2024-03-25T08:42:34;94650.44;;;8.65;62.68
12624;BME280;6377;42.836;23.998;2024-03-25T08:45:00;94660.63;;;8.68;61.87
12624;BME280;6377;42.836;23.998;2024-03-25T08:47:26;94659.00;;;8.45;59.93
12624;BME280;6377;42.836;23.998;2024-03-25T08:49:52;94676.59;;;8.66;59.57
12624;BME280;6377;42.836;23.998;2024-03-25T08:52:18;94670.88;;;8.84;60.53
12624;BME280;6377;42.836;23.998;2024-03-25T08:54:44;94683.84;;;9.13;60.50
12624;BME280;6377;42.836;23.998;2024-03-25T08:57:11;94611.47;;;8.88;58.18
12624;BME280;6377;42.836;23.998;2024-03-25T08:59:37;94585.81;;;8.69;59.19
12624;BME280;6377;42.836;23.998;2024-03-25T09:02:02;94700.53;;;9.54;53.81
12624;BME280;6377;42.836;23.998;2024-03-25T09:04:28;94710.31;;;9.61;56.44
12624;BME280;6377;42.836;23.998;2024-03-25T09:06:54;94694.31;;;9.34;55.61
12624;BME280;6377;42.836;23.998;2024-03-25T09:09:20;94710.13;;;9.28;59.09
12624;BME280;6377;42.836;23.998;2024-03-25T09:12:04;94710.22;;;9.13;53.35
12624;BME280;6377;42.836;23.998;2024-03-25T09:14:32;94702.19;;;9.28;54.94
12624;BME280;6377;42.836;23.998;2024-03-25T09:16:57;94697.63;;;9.43;56.34
12624;BME280;6377;42.836;23.998;2024-03-25T09:19:23;94674.59;;;8.96;54.02
12624;BME280;6377;42.836;23.998;2024-03-25T09:21:49;94693.22;;;8.88;53.65
12624;BME280;6377;42.836;23.998;2024-03-25T09:24:15;94670.31;;;8.88;54.55
12624;BME280;6377;42.836;23.998;2024-03-25T09:26:40;94669.72;;;8.93;54.55
12624;BME280;6377;42.836;23.998;2024-03-25T09:29:06;94675.84;;;9.34;54.29
12624;BME280;6377;42.836;23.998;2024-03-25T09:31:34;94683.66;;;9.15;52.13
12624;BME280;6377;42.836;23.998;2024-03-25T09:34:00;94668.59;;;9.09;53.20
12624;BME280;6377;42.836;23.998;2024-03-25T09:36:26;94654.91;;;8.92;51.51
12624;BME280;6377;42.836;23.998;2024-03-25T09:38:52;94687.69;;;9.11;50.64
12624;BME280;6377;42.836;23.998;2024-03-25T09:41:17;94700.22;;;9.02;50.14
12624;BME280;6377;42.836;23.998;2024-03-25T09:43:46;94690.91;;;9.06;51.59
12624;BME280;6377;42.836;23.998;2024-03-25T09:46:13;94693.59;;;9.13;51.39
12624;BME280;6377;42.836;23.998;2024-03-25T09:48:41;94620.59;;;8.58;50.80
12624;BME280;6377;42.836;23.998;2024-03-25T09:51:07;94624.38;;;8.76;52.33
12624;BME280;6377;42.836;23.998;2024-03-25T09:53:34;94661.47;;;9.02;52.07
12624;BME280;6377;42.836;23.998;2024-03-25T09:56:00;94699.00;;;9.32;51.81
12624;BME280;6377;42.836;23.998;2024-03-25T09:58:26;94698.78;;;9.34;48.71
12624;BME280;6377;42.836;23.998;2024-03-25T10:00:53;94684.03;;;9.46;50.38
12624;BME280;6377;42.836;23.998;2024-03-25T10:03:19;94574.13;;;8.84;50.62
12624;BME280;6377;42.836;23.998;2024-03-25T10:05:46;94697.75;;;9.63;49.64
12624;BME280;6377;42.836;23.998;2024-03-25T10:08:12;94645.97;;;9.21;46.76
12624;BME280;6377;42.836;23.998;2024-03-25T10:10:38;94696.66;;;9.50;46.85
12624;BME280;6377;42.836;23.998;2024-03-25T10:13:04;94684.50;;;9.56;45.42
12624;BME280;6377;42.836;23.998;2024-03-25T10:15:30;94663.22;;;9.23;46.87
12624;BME280;6377;42.836;23.998;2024-03-25T10:17:56;94673.16;;;9.21;47.25
12624;BME280;6377;42.836;23.998;2024-03-25T10:20:22;94691.38;;;9.16;47.41
12624;BME280;6377;42.836;23.998;2024-03-25T10:22:49;94720.00;;;9.19;46.09
12624;BME280;6377;42.836;23.998;2024-03-25T10:25:22;94719.38;;;9.17;45.56
12624;BME280;6377;42.836;23.998;2024-03-25T10:27:55;94696.66;;;9.16;46.53
12624;BME280;6377;42.836;23.998;2024-03-25T10:30:21;94675.00;;;8.93;48.81
12624;BME280;6377;42.836;23.998;2024-03-25T10:32:57;94724.00;;;9.36;47.56
12624;BME280;6377;42.836;23.998;2024-03-25T10:35:26;94721.38;;;9.84;47.05
12624;BME280;6377;42.836;23.998;2024-03-25T10:37:55;94681.88;;;9.56;47.28
12624;BME280;6377;42.836;23.998;2024-03-25T10:40:22;94696.78;;;10.37;51.32
12624;BME280;6377;42.836;23.998;2024-03-25T10:42:49;94673.88;;;10.77;46.62
12624;BME280;6377;42.836;23.998;2024-03-25T10:45:15;94687.88;;;10.78;44.92
12624;BME280;6377;42.836;23.998;2024-03-25T10:47:41;94697.47;;;10.92;44.68
12624;BME280;6377;42.836;23.998;2024-03-25T10:50:09;94640.78;;;10.07;47.04
12624;BME280;6377;42.836;23.998;2024-03-25T10:52:38;94691.09;;;10.27;47.07
12624;BME280;6377;42.836;23.998;2024-03-25T10:55:06;94606.94;;;9.57;45.23
12624;BME280;6377;42.836;23.998;2024-03-25T10:57:33;94703.25;;;10.22;45.41
12624;BME280;6377;42.836;23.998;2024-03-25T11:00:00;94707.56;;;10.42;43.14
12624;BME280;6377;42.836;23.998;2024-03-25T11:02:27;94698.84;;;11.07;44.08
12624;BME280;6377;42.836;23.998;2024-03-25T11:04:53;94707.22;;;11.24;43.75
12624;BME280;6377;42.836;23.998;2024-03-25T11:07:30;94694.50;;;11.59;42.21
12624;BME280;6377;42.836;23.998;2024-03-25T11:10:04;94666.63;;;11.50;43.50
12624;BME280;6377;42.836;23.998;2024-03-25T11:12:35;94688.75;;;11.68;42.84
12624;BME280;6377;42.836;23.998;2024-03-25T11:15:02;94707.63;;;11.08;42.81
12624;BME280;6377;42.836;23.998;2024-03-25T11:17:29;94686.44;;;11.14;43.47
12624;BME280;6377;42.836;23.998;2024-03-25T11:19:56;94698.16;;;11.58;41.51
12624;BME280;6377;42.836;23.998;2024-03-25T11:22:32;94692.44;;;12.18;40.85
12624;BME280;6377;42.836;23.998;2024-03-25T11:25:06;94654.91;;;12.59;40.06
12624;BME280;6377;42.836;23.998;2024-03-25T11:27:35;94684.03;;;13.40;40.04
12624;BME280;6377;42.836;23.998;2024-03-25T11:30:01;94663.53;;;13.47;37.50
12624;BME280;6377;42.836;23.998;2024-03-25T11:32:28;94681.28;;;12.79;38.09
12624;BME280;6377;42.836;23.998;2024-03-25T11:34:54;94667.63;;;13.25;38.54
12624;BME280;6377;42.836;23.998;2024-03-25T11:37:20;94656.41;;;13.23;40.35
12624;BME280;6377;42.836;23.998;2024-03-25T11:39:45;94648.97;;;13.07;38.66
12624;BME280;6377;42.836;23.998;2024-03-25T11:42:13;94673.19;;;13.60;36.47
12624;BME280;6377;42.836;23.998;2024-03-25T11:44:39;94686.56;;;13.53;36.42
12624;BME280;6377;42.836;23.998;2024-03-25T11:47:07;94690.69;;;13.49;36.33
12624;BME280;6377;42.836;23.998;2024-03-25T11:49:33;94667.16;;;13.10;38.09
12624;BME280;6377;42.836;23.998;2024-03-25T11:51:59;94650.13;;;12.92;37.62
12624;BME280;6377;42.836;23.998;2024-03-25T11:54:27;94624.34;;;12.19;38.47
12624;BME280;6377;42.836;23.998;2024-03-25T11:56:53;94652.94;;;12.10;36.50
12624;BME280;6377;42.836;23.998;2024-03-25T11:59:21;94586.66;;;11.28;36.25
12624;BME280;6377;42.836;23.998;2024-03-25T12:01:47;94679.78;;;11.83;36.46
12624;BME280;6377;42.836;23.998;2024-03-25T12:04:16;94684.69;;;12.23;36.07
12624;BME280;6377;42.836;23.998;2024-03-25T12:06:42;94690.22;;;12.53;38.13
12624;BME280;6377;42.836;23.998;2024-03-25T12:09:10;94687.16;;;12.81;36.91
12624;BME280;6377;42.836;23.998;2024-03-25T12:11:54;94703.19;;;12.92;36.33
12624;BME280;6377;42.836;23.998;2024-03-25T12:14:22;94702.81;;;13.20;34.80
12624;BME280;6377;42.836;23.998;2024-03-25T12:16:48;94654.84;;;13.58;34.57
12624;BME280;6377;42.836;23.998;2024-03-25T12:19:15;94674.66;;;13.74;34.45
12624;BME280;6377;42.836;23.998;2024-03-25T12:21:40;94676.03;;;12.66;35.59
12624;BME280;6377;42.836;23.998;2024-03-25T12:24:07;94684.25;;;13.57;36.38
12624;BME280;6377;42.836;23.998;2024-03-25T12:26:34;94642.31;;;13.95;34.51
12624;BME280;6377;42.836;23.998;2024-03-25T12:28:59;94659.78;;;13.73;35.64
12624;BME280;6377;42.836;23.998;2024-03-25T12:31:27;94663.19;;;13.19;35.31
12624;BME280;6377;42.836;23.998;2024-03-25T12:33:52;94688.25;;;12.73;36.31
12624;BME280;6377;42.836;23.998;2024-03-25T12:36:20;94641.72;;;12.15;36.73
12624;BME280;6377;42.836;23.998;2024-03-25T12:38:54;94687.41;;;12.10;37.36
12624;BME280;6377;42.836;23.998;2024-03-25T12:41:22;94648.63;;;11.78;36.82
12624;BME280;6377;42.836;23.998;2024-03-25T12:43:49;94666.31;;;11.84;37.48
12624;BME280;6377;42.836;23.998;2024-03-25T12:46:16;94590.69;;;11.37;37.79
12624;BME280;6377;42.836;23.998;2024-03-25T12:48:43;94664.50;;;12.22;37.71
12624;BME280;6377;42.836;23.998;2024-03-25T12:51:12;94666.00;;;12.43;35.80
12624;BME280;6377;42.836;23.998;2024-03-25T12:53:38;94646.81;;;12.72;35.64
12624;BME280;6377;42.836;23.998;2024-03-25T12:56:04;94642.84;;;12.57;35.71
12624;BME280;6377;42.836;23.998;2024-03-25T12:58:30;94719.97;;;12.86;34.96
12624;BME280;6377;42.836;23.998;2024-03-25T13:00:56;94743.81;;;12.93;34.66